Time;durP1;ratioP1;P1;durP2;ratioP2;P2;SDS_P1;SDS_P2;PMS_P1;PMS_P2;Temp;Humidity;BMP_temperature;BMP_pressure;BME280_temperature;BME280_humidity;BME280_pressure;Samples;Min_cycle;Max_cycle;Signal;HPM_P1;HPM_P2
2023/07/16 00:00:24;;;;;;;3.50;3.20;;;23.60;99.90;;;;;;5242204;28;20213;-47
2023/07/16 00:02:54;;;;;;;3.77;3.50;;;23.50;99.90;;;;;;5242015;28;20723;-47
2023/07/16 00:05:25;;;;;;;3.13;2.90;;;23.40;99.90;;;;;;5242394;28;20214;-46
2023/07/16 00:07:56;;;;;;;3.40;3.17;;;23.40;99.90;;;;;;5239896;28;20559;-47
2023/07/16 00:10:27;;;;;;;4.20;2.70;;;23.30;99.90;;;;;;5226434;28;20188;-46
2023/07/16 00:12:57;;;;;;;2.87;2.77;;;23.30;99.90;;;;;;5243873;28;20471;-47
2023/07/16 00:15:28;;;;;;;3.00;2.80;;;23.20;99.90;;;;;;5228316;28;20210;-47
2023/07/16 00:17:59;;;;;;;3.33;3.03;;;23.10;99.90;;;;;;5245827;28;20189;-47
2023/07/16 00:20:31;;;;;;;3.70;3.10;;;23.10;99.90;;;;;;5244046;28;20428;-49
2023/07/16 00:23:01;;;;;;;2.33;2.23;;;23.10;99.90;;;;;;5243436;28;20186;-47
2023/07/16 00:25:32;;;;;;;2.57;2.47;;;23.00;99.90;;;;;;5245711;28;20452;-47
2023/07/16 00:28:03;;;;;;;2.83;2.63;;;23.00;99.90;;;;;;5228690;28;20277;-47
2023/07/16 00:30:33;;;;;;;6.73;3.17;;;22.90;99.90;;;;;;5244384;28;20590;-48
2023/07/16 00:33:04;;;;;;;8.63;3.90;;;22.90;99.90;;;;;;5245441;28;20615;-48
2023/07/16 00:35:34;;;;;;;3.13;2.40;;;22.90;99.90;;;;;;5249403;28;20198;-46
2023/07/16 00:38:05;;;;;;;3.37;3.13;;;22.90;99.90;;;;;;5245549;28;20186;-47
2023/07/16 00:40:36;;;;;;;2.40;2.30;;;22.90;99.90;;;;;;5246609;28;20182;-46
2023/07/16 00:43:06;;;;;;;2.13;2.10;;;22.90;99.90;;;;;;5245951;28;20198;-47
2023/07/16 00:45:39;;;;;;;3.60;2.70;;;22.90;99.90;;;;;;5246200;28;20915;-47
2023/07/16 00:48:09;;;;;;;2.93;2.80;;;22.90;99.90;;;;;;5249290;28;20197;-48
2023/07/16 00:50:41;;;;;;;3.30;3.17;;;23.00;99.90;;;;;;5250649;28;20444;-47
2023/07/16 00:53:12;;;;;;;4.60;2.97;;;23.00;99.90;;;;;;5247455;28;20230;-47
2023/07/16 00:55:43;;;;;;;2.30;1.90;;;23.00;99.90;;;;;;5225387;28;21278;-47
2023/07/16 00:58:13;;;;;;;3.67;3.33;;;23.00;99.90;;;;;;5229898;28;20445;-46
2023/07/16 01:00:44;;;;;;;3.27;2.97;;;23.10;99.90;;;;;;5232189;28;20290;-47
2023/07/16 01:03:15;;;;;;;5.03;3.00;;;23.00;99.90;;;;;;5247989;28;20186;-49
2023/07/16 01:05:53;;;;;;;3.97;3.37;;;23.10;99.90;;;;;;5245830;28;20213;-47
2023/07/16 01:08:38;;;;;;;4.00;3.00;;;23.20;99.90;;;;;;5243694;28;20642;-45
2023/07/16 01:11:09;;;;;;;2.57;2.47;;;23.30;99.90;;;;;;5242722;28;20511;-47
2023/07/16 01:13:41;;;;;;;3.20;2.93;;;23.40;99.90;;;;;;5232446;28;20493;-47
2023/07/16 01:16:23;;;;;;;4.83;1.70;;;23.40;99.90;;;;;;5241029;28;20482;-47
2023/07/16 01:18:53;;;;;;;3.03;2.80;;;23.50;99.90;;;;;;5242855;28;20463;-46
2023/07/16 01:21:25;;;;;;;2.67;2.47;;;23.60;99.90;;;;;;5245196;28;20444;-47
2023/07/16 01:24:02;;;;;;;2.37;2.33;;;23.70;99.90;;;;;;5242350;28;20189;-48
2023/07/16 01:26:58;;;;;;;2.93;2.73;;;23.80;99.90;;;;;;5227283;28;20566;-47
2023/07/16 01:29:48;;;;;;;2.93;2.73;;;24.00;99.90;;;;;;5241063;28;20448;-47
2023/07/16 01:32:21;;;;;;;3.07;2.87;;;24.10;99.90;;;;;;5228117;28;20480;-47
2023/07/16 01:34:53;;;;;;;3.30;3.20;;;24.00;99.90;;;;;;5228861;28;20459;-48
2023/07/16 01:37:24;;;;;;;2.50;2.33;;;23.90;99.90;;;;;;5240599;28;20974;-48
2023/07/16 01:39:55;;;;;;;5.40;2.60;;;23.80;99.90;;;;;;5246523;28;20433;-48
2023/07/16 01:42:26;;;;;;;2.90;2.80;;;23.80;99.90;;;;;;5228568;28;20194;-47
2023/07/16 01:44:56;;;;;;;6.60;3.00;;;23.70;99.90;;;;;;5242409;28;20474;-47
2023/07/16 01:47:52;;;;;;;3.40;2.83;;;23.70;99.90;;;;;;5228416;28;20183;-48
2023/07/16 01:50:23;;;;;;;3.67;3.47;;;23.70;99.90;;;;;;5240681;28;20201;-49
2023/07/16 01:52:54;;;;;;;3.90;3.30;;;23.60;99.90;;;;;;5243235;28;20464;-47
2023/07/16 01:55:24;;;;;;;3.60;3.30;;;23.60;99.90;;;;;;5239477;28;20210;-48
2023/07/16 01:57:55;;;;;;;4.80;3.90;;;23.40;99.90;;;;;;5243359;28;20185;-48
2023/07/16 02:00:25;;;;;;;4.30;3.47;;;23.30;99.90;;;;;;5243419;28;20203;-46
2023/07/16 02:02:56;;;;;;;3.00;2.80;;;23.30;99.90;;;;;;5229345;28;20186;-47
2023/07/16 02:05:27;;;;;;;3.23;3.03;;;23.20;99.90;;;;;;5245406;28;20233;-47
2023/07/16 02:07:57;;;;;;;4.73;3.00;;;23.20;99.90;;;;;;5249008;28;20191;-47
2023/07/16 02:10:28;;;;;;;5.40;3.20;;;23.20;99.90;;;;;;5247483;28;20249;-47
2023/07/16 02:12:59;;;;;;;2.50;2.40;;;23.20;99.90;;;;;;5251448;28;20236;-46
2023/07/16 02:15:29;;;;;;;3.00;2.80;;;23.20;99.90;;;;;;5245984;28;20199;-47
2023/07/16 02:18:00;;;;;;;3.13;2.93;;;23.20;99.90;;;;;;5232919;28;20182;-46
2023/07/16 02:20:30;;;;;;;3.80;2.93;;;23.20;99.90;;;;;;5244990;28;20178;-48
2023/07/16 02:23:01;;;;;;;2.80;2.70;;;23.30;99.90;;;;;;5208937;28;20179;-49
2023/07/16 02:25:33;;;;;;;2.50;2.40;;;23.20;99.90;;;;;;5245269;28;20697;-47
2023/07/16 02:28:03;;;;;;;3.90;2.80;;;23.10;99.90;;;;;;5227306;28;20643;-47
2023/07/16 02:30:34;;;;;;;11.23;2.63;;;23.00;99.90;;;;;;5248469;28;20452;-47
2023/07/16 02:33:05;;;;;;;4.93;2.80;;;22.70;99.90;;;;;;5226753;28;20208;-46
2023/07/16 02:35:35;;;;;;;2.47;2.40;;;22.40;99.90;;;;;;5226733;28;20201;-46
2023/07/16 02:38:06;;;;;;;2.80;2.60;;;22.20;99.90;;;;;;5226397;28;21538;-47
2023/07/16 02:40:42;;;;;;;4.80;3.17;;;22.00;99.90;;;;;;5225575;28;20178;-48
2023/07/16 02:43:12;;;;;;;2.83;2.77;;;21.80;99.90;;;;;;5242833;28;20324;-47
2023/07/16 02:45:43;;;;;;;2.70;2.60;;;21.50;99.90;;;;;;5240631;28;20538;-47
2023/07/16 02:48:14;;;;;;;2.93;2.73;;;21.30;99.90;;;;;;5245702;28;20194;-47
2023/07/16 02:50:44;;;;;;;4.90;3.30;;;21.10;99.90;;;;;;5231224;28;20610;-46
2023/07/16 02:53:15;;;;;;;3.20;2.90;;;21.00;99.90;;;;;;5243702;28;20702;-46
2023/07/16 02:55:46;;;;;;;3.77;3.50;;;20.90;99.90;;;;;;5242883;28;20202;-47
2023/07/16 02:58:17;;;;;;;4.07;3.67;;;20.80;99.90;;;;;;5216582;28;20193;-47
2023/07/16 03:00:48;;;;;;;3.30;2.87;;;20.70;99.90;;;;;;5253813;28;20412;-46
2023/07/16 03:03:18;;;;;;;3.30;3.10;;;20.60;99.90;;;;;;5249604;28;20182;-47
2023/07/16 03:05:49;;;;;;;2.80;2.70;;;20.60;99.90;;;;;;5229268;28;20210;-46
2023/07/16 03:08:19;;;;;;;4.90;3.50;;;20.60;99.90;;;;;;5245965;28;20228;-46
2023/07/16 03:10:50;;;;;;;3.07;2.87;;;20.60;99.90;;;;;;5256723;28;20182;-46
2023/07/16 03:13:21;;;;;;;2.97;2.77;;;20.70;99.90;;;;;;5252584;28;20190;-46
2023/07/16 03:15:51;;;;;;;3.73;3.20;;;20.50;99.90;;;;;;5256078;28;20202;-46
2023/07/16 03:18:22;;;;;;;4.50;3.37;;;20.40;99.90;;;;;;5258435;28;20190;-47
2023/07/16 03:20:53;;;;;;;5.27;4.10;;;20.40;99.90;;;;;;5243897;28;20523;-48
2023/07/16 03:23:24;;;;;;;4.67;4.27;;;20.30;99.90;;;;;;5244418;28;20198;-46
2023/07/16 03:25:54;;;;;;;3.47;3.23;;;20.20;99.90;;;;;;5246017;28;20209;-46
2023/07/16 03:28:25;;;;;;;7.50;3.97;;;20.20;99.90;;;;;;5245581;28;20792;-45
2023/07/16 03:30:56;;;;;;;3.67;3.37;;;20.30;99.90;;;;;;5226562;28;20186;-46
2023/07/16 03:33:26;;;;;;;8.83;3.43;;;20.20;99.90;;;;;;5238656;28;20278;-47
2023/07/16 03:35:57;;;;;;;3.93;3.50;;;20.10;99.90;;;;;;5241342;28;20251;-46
2023/07/16 03:38:28;;;;;;;3.77;3.23;;;20.10;99.90;;;;;;5241802;28;20405;-46
2023/07/16 03:40:58;;;;;;;3.93;3.63;;;20.20;99.90;;;;;;5240078;28;20186;-46
2023/07/16 03:43:29;;;;;;;5.63;4.20;;;20.40;99.90;;;;;;5244062;28;20318;-47
2023/07/16 03:45:59;;;;;;;4.23;3.40;;;20.50;99.90;;;;;;5211528;28;20206;-46
2023/07/16 03:48:30;;;;;;;3.57;3.30;;;20.50;99.90;;;;;;5228004;28;20190;-46
2023/07/16 03:51:01;;;;;;;3.70;3.40;;;20.50;99.90;;;;;;5242278;28;20178;-47
2023/07/16 03:53:31;;;;;;;2.83;2.63;;;20.50;99.90;;;;;;5242476;28;20209;-47
2023/07/16 03:56:02;;;;;;;3.27;3.07;;;20.40;99.90;;;;;;5237881;28;20211;-47
2023/07/16 03:58:32;;;;;;;2.60;2.50;;;20.30;99.90;;;;;;5227794;28;20175;-46
2023/07/16 04:01:03;;;;;;;3.07;2.77;;;20.30;99.90;;;;;;5235568;28;20911;-46
2023/07/16 04:03:34;;;;;;;3.33;3.17;;;20.40;99.90;;;;;;5208186;28;20182;-47
2023/07/16 04:06:09;;;;;;;2.80;2.60;;;20.40;99.90;;;;;;5241019;28;20606;-46
2023/07/16 04:08:40;;;;;;;3.10;2.90;;;20.40;99.90;;;;;;5244997;28;20182;-46
2023/07/16 04:11:11;;;;;;;2.17;2.00;;;20.40;99.90;;;;;;5245723;28;20450;-47
2023/07/16 04:13:41;;;;;;;2.60;2.50;;;20.50;99.90;;;;;;5247270;28;20187;-47
2023/07/16 04:16:12;;;;;;;2.47;2.30;;;20.50;99.90;;;;;;5241843;28;20521;-46
2023/07/16 04:18:43;;;;;;;2.00;2.00;;;20.70;99.90;;;;;;5226719;28;20236;-47
2023/07/16 04:21:13;;;;;;;3.33;3.07;;;20.60;99.90;;;;;;5224528;28;20216;-46
2023/07/16 04:23:45;;;;;;;2.63;2.63;;;20.60;99.90;;;;;;5226407;28;20265;-46
2023/07/16 04:26:16;;;;;;;2.47;2.37;;;20.70;99.90;;;;;;5213491;28;20246;-46
2023/07/16 04:28:46;;;;;;;2.20;2.10;;;20.70;99.90;;;;;;5246471;28;20511;-46
2023/07/16 04:31:17;;;;;;;3.00;2.80;;;20.80;99.90;;;;;;5227080;28;20223;-48
2023/07/16 04:33:47;;;;;;;2.60;2.40;;;20.90;99.90;;;;;;5243828;28;20185;-46
2023/07/16 04:36:18;;;;;;;2.70;2.50;;;21.10;99.90;;;;;;5232623;28;20210;-47
2023/07/16 04:38:49;;;;;;;2.57;2.47;;;21.20;99.90;;;;;;5231145;28;20190;-48
2023/07/16 04:41:19;;;;;;;2.03;1.93;;;21.30;99.90;;;;;;5242385;28;20304;-46
2023/07/16 04:43:50;;;;;;;3.17;1.87;;;21.20;99.90;;;;;;5249033;28;20730;-46
2023/07/16 04:46:20;;;;;;;3.13;2.60;;;21.10;99.90;;;;;;5245153;28;20225;-47
2023/07/16 04:48:51;;;;;;;1.90;1.90;;;21.20;99.90;;;;;;5221206;28;20178;-47
2023/07/16 04:51:22;;;;;;;2.63;2.43;;;21.30;99.90;;;;;;5225360;28;20566;-48
2023/07/16 04:53:52;;;;;;;1.83;1.77;;;21.30;99.90;;;;;;5230367;28;20192;-46
2023/07/16 04:56:23;;;;;;;1.90;1.80;;;21.30;99.90;;;;;;5232442;22;20218;-41
2023/07/16 04:58:54;;;;;;;2.13;2.03;;;21.30;99.90;;;;;;5218837;28;20476;-42
2023/07/16 05:01:26;;;;;;;2.30;2.20;;;21.20;99.90;;;;;;5227412;28;20260;-41
2023/07/16 05:03:57;;;;;;;1.73;1.73;;;21.20;99.90;;;;;;5207209;28;20718;-42
2023/07/16 05:06:27;;;;;;;1.93;1.73;;;21.40;99.90;;;;;;5228069;28;20456;-42
2023/07/16 05:08:58;;;;;;;2.67;2.47;;;21.30;99.90;;;;;;5225901;28;20195;-42
2023/07/16 05:11:29;;;;;;;2.33;2.13;;;21.30;99.90;;;;;;5229431;28;20290;-42
2023/07/16 05:13:59;;;;;;;3.10;2.83;;;21.40;99.90;;;;;;5227710;28;20255;-41
2023/07/16 05:16:30;;;;;;;4.40;2.77;;;21.50;99.90;;;;;;5222860;28;20214;-42
2023/07/16 05:19:00;;;;;;;2.10;2.00;;;21.60;99.90;;;;;;5208771;28;20180;-42
2023/07/16 05:21:31;;;;;;;2.73;2.63;;;21.60;99.90;;;;;;5228123;28;20580;-42
2023/07/16 05:24:02;;;;;;;1.63;1.63;;;21.70;99.90;;;;;;5227191;28;20241;-42
2023/07/16 05:26:33;;;;;;;9.60;2.70;;;21.70;99.90;;;;;;5206686;28;20215;-43
2023/07/16 05:29:03;;;;;;;2.77;2.60;;;22.20;99.90;;;;;;5209737;28;20457;-42
2023/07/16 05:31:34;;;;;;;2.20;2.10;;;22.70;99.90;;;;;;5231245;28;20238;-41
2023/07/16 05:34:05;;;;;;;2.47;2.27;;;23.00;99.90;;;;;;5210774;28;20190;-43
2023/07/16 05:36:35;;;;;;;3.60;2.30;;;23.80;99.90;;;;;;5227853;28;20235;-42
2023/07/16 05:39:08;;;;;;;2.13;2.00;;;25.40;99.90;;;;;;5222650;28;20240;-43
2023/07/16 05:41:39;;;;;;;2.10;2.00;;;27.50;99.90;;;;;;5224604;28;20213;-42
2023/07/16 05:44:10;;;;;;;2.20;2.10;;;27.80;99.90;;;;;;5207095;28;20540;-42
2023/07/16 05:46:41;;;;;;;4.00;2.93;;;27.20;99.90;;;;;;5205693;28;20473;-42
2023/07/16 05:49:11;;;;;;;2.23;2.07;;;26.70;99.90;;;;;;5207478;28;20442;-42
2023/07/16 05:51:42;;;;;;;2.40;2.30;;;26.60;99.90;;;;;;5207050;28;20234;-43
2023/07/16 05:54:13;;;;;;;2.83;2.07;;;27.70;99.90;;;;;;5221801;28;20209;-42
2023/07/16 05:56:44;;;;;;;2.03;1.93;;;29.00;99.90;;;;;;5205729;28;20276;-43
2023/07/16 05:59:14;;;;;;;2.93;1.80;;;29.60;99.90;;;;;;5224367;28;20183;-43
2023/07/16 06:01:45;;;;;;;2.60;2.40;;;30.50;98.00;;;;;;5215852;28;20205;-43
2023/07/16 06:04:15;;;;;;;1.77;1.67;;;32.20;90.20;;;;;;5223045;28;20185;-43
2023/07/16 06:06:46;;;;;;;2.57;2.07;;;34.30;76.00;;;;;;5225345;28;20323;-44
2023/07/16 06:09:17;;;;;;;2.10;2.00;;;35.70;61.20;;;;;;5206682;28;20217;-44
2023/07/16 06:11:47;;;;;;;1.88;1.77;;;36.90;56.60;;;;;;5224717;28;20194;-43
2023/07/16 06:14:18;;;;;;;1.83;1.73;;;38.20;51.70;;;;;;5191755;28;20217;-43
2023/07/16 06:16:49;;;;;;;1.73;1.65;;;39.40;47.20;;;;;;5222051;28;20273;-43
2023/07/16 06:19:19;;;;;;;3.13;2.10;;;39.90;44.20;;;;;;5222075;28;20653;-43
2023/07/16 06:21:50;;;;;;;3.90;1.67;;;40.20;43.40;;;;;;5206140;28;20578;-43
2023/07/16 06:24:21;;;;;;;2.47;2.30;;;40.50;42.20;;;;;;5219988;28;20194;-42
2023/07/16 06:26:51;;;;;;;1.50;1.50;;;40.80;40.60;;;;;;5190438;28;20210;-44
2023/07/16 06:29:22;;;;;;;3.00;2.25;;;41.10;39.80;;;;;;5201997;28;20190;-44
2023/07/16 06:31:56;;;;;;;3.65;2.33;;;41.70;39.00;;;;;;5222289;28;20240;-44
2023/07/16 06:34:27;;;;;;;2.35;1.90;;;42.00;38.10;;;;;;5204725;28;21645;-44
2023/07/16 06:36:58;;;;;;;3.35;2.05;;;42.50;37.20;;;;;;5222876;28;20250;-44
2023/07/16 06:39:28;;;;;;;1.40;1.30;;;42.60;36.90;;;;;;5219948;28;20724;-43
2023/07/16 06:41:59;;;;;;;1.98;1.70;;;42.30;37.10;;;;;;5217673;28;20182;-44
2023/07/16 06:44:30;;;;;;;2.10;2.00;;;42.20;36.30;;;;;;5202116;28;20183;-44
2023/07/16 06:47:01;;;;;;;1.58;1.58;;;42.50;36.20;;;;;;5204218;28;20186;-44
2023/07/16 06:49:32;;;;;;;2.05;1.95;;;42.50;35.60;;;;;;5206426;28;20209;-44
2023/07/16 06:52:02;;;;;;;1.80;1.70;;;42.40;36.00;;;;;;5203282;28;20226;-44
2023/07/16 06:54:33;;;;;;;2.03;1.83;;;41.80;35.70;;;;;;5224454;28;20186;-43
2023/07/16 06:57:04;;;;;;;2.42;2.33;;;40.80;37.20;;;;;;5202242;28;20186;-43
2023/07/16 06:59:34;;;;;;;2.25;1.92;;;40.70;37.20;;;;;;5218247;28;20192;-42
2023/07/16 07:02:06;;;;;;;1.60;1.60;;;40.10;38.20;;;;;;5219704;28;20185;-44
2023/07/16 07:04:36;;;;;;;2.38;2.08;;;40.20;37.90;;;;;;5196242;28;20190;-44
2023/07/16 07:07:07;;;;;;;1.83;1.73;;;38.20;39.50;;;;;;5210759;28;20240;-43
2023/07/16 07:09:38;;;;;;;1.75;1.75;;;36.80;42.40;;;;;;5199210;28;20194;-44
2023/07/16 07:12:08;;;;;;;1.88;1.77;;;36.00;43.40;;;;;;5202686;28;20241;-44
2023/07/16 07:14:39;;;;;;;4.88;1.90;;;34.80;45.70;;;;;;5220128;28;20182;-42
2023/07/16 07:17:09;;;;;;;2.13;2.03;;;33.40;48.10;;;;;;5202014;28;20270;-44
2023/07/16 07:19:41;;;;;;;1.77;1.67;;;33.60;48.50;;;;;;5203544;28;20210;-43
2023/07/16 07:22:12;;;;;;;1.93;1.80;;;33.40;48.40;;;;;;5198391;28;20277;-43
2023/07/16 07:24:44;;;;;;;1.87;1.87;;;33.30;48.60;;;;;;5203945;28;20309;-42
2023/07/16 07:27:15;;;;;;;1.40;1.30;;;33.20;48.70;;;;;;5215982;28;20186;-45
2023/07/16 07:29:46;;;;;;;2.20;2.10;;;32.40;50.00;;;;;;5216084;28;20199;-43
2023/07/16 07:32:18;;;;;;;3.23;1.93;;;31.60;52.40;;;;;;5191961;28;20660;-44
2023/07/16 07:34:49;;;;;;;1.73;1.73;;;32.70;50.90;;;;;;5211429;28;20214;-43
2023/07/16 07:37:20;;;;;;;2.33;2.10;;;32.50;50.60;;;;;;5217483;28;20488;-43
2023/07/16 07:39:52;;;;;;;4.23;2.33;;;32.50;50.60;;;;;;5221605;28;20179;-44
2023/07/16 07:42:23;;;;;;;3.63;2.23;;;33.10;49.40;;;;;;5219041;28;20190;-43
2023/07/16 07:44:54;;;;;;;4.33;2.00;;;33.50;48.80;;;;;;5225319;28;20443;-43
2023/07/16 07:47:26;;;;;;;4.03;1.77;;;34.40;47.80;;;;;;5226852;28;20194;-44
2023/07/16 07:49:56;;;;;;;1.60;1.60;;;34.40;47.00;;;;;;5218021;28;20195;-45
2023/07/16 07:52:27;;;;;;;1.93;1.83;;;33.60;47.80;;;;;;5204568;28;20637;-44
2023/07/16 07:54:58;;;;;;;1.70;1.60;;;32.30;49.80;;;;;;5226511;28;20209;-44
2023/07/16 07:57:29;;;;;;;2.20;2.10;;;31.10;51.90;;;;;;5205732;28;20268;-44
2023/07/16 07:59:59;;;;;;;5.43;2.47;;;30.10;53.70;;;;;;5223326;28;20194;-44
2023/07/16 08:02:30;;;;;;;5.33;1.77;;;29.60;55.50;;;;;;5224058;28;20578;-44
2023/07/16 08:05:01;;;;;;;1.80;1.70;;;32.20;52.10;;;;;;5228571;28;20206;-43
2023/07/16 08:07:31;;;;;;;8.20;1.83;;;35.30;46.70;;;;;;5211824;28;20193;-46
2023/07/16 08:10:03;;;;;;;1.80;1.70;;;37.10;42.50;;;;;;5204788;28;20186;-43
2023/07/16 08:12:33;;;;;;;3.08;2.53;;;38.70;39.80;;;;;;5230605;28;20212;-42
2023/07/16 08:15:07;;;;;;;1.48;1.38;;;39.90;38.70;;;;;;5189465;28;20559;-41
2023/07/16 08:17:37;;;;;;;1.40;1.40;;;40.20;36.20;;;;;;5200155;28;20730;-45
2023/07/16 08:20:09;;;;;;;1.13;1.13;;;37.70;38.20;;;;;;5209514;28;20232;-43
2023/07/16 08:22:39;;;;;;;2.45;1.23;;;35.20;41.10;;;;;;5226022;28;20186;-43
2023/07/16 08:25:10;;;;;;;8.03;1.60;;;33.00;43.70;;;;;;5210258;28;20207;-42
2023/07/16 08:27:41;;;;;;;1.00;1.00;;;31.30;47.20;;;;;;5226105;28;20190;-41
2023/07/16 08:30:11;;;;;;;3.40;2.13;;;31.50;47.90;;;;;;5201964;28;20213;-42
2023/07/16 08:32:42;;;;;;;1.60;1.50;;;33.90;43.70;;;;;;5223461;28;20198;-43
2023/07/16 08:35:16;;;;;;;1.10;1.10;;;35.20;41.00;;;;;;5208701;28;20201;-42
2023/07/16 08:37:46;;;;;;;4.45;2.03;;;36.00;39.60;;;;;;5204739;28;20260;-44
2023/07/16 08:40:17;;;;;;;1.85;1.55;;;36.60;38.60;;;;;;5222663;28;20262;-43
2023/07/16 08:42:49;;;;;;;1.95;1.63;;;36.20;38.70;;;;;;5220008;28;20279;-43
2023/07/16 08:45:23;;;;;;;2.22;1.85;;;35.30;40.10;;;;;;5225549;28;20206;-45
2023/07/16 08:47:55;;;;;;;2.05;1.85;;;34.90;40.40;;;;;;5224915;28;20187;-46
2023/07/16 08:50:27;;;;;;;1.73;1.73;;;33.20;41.60;;;;;;5212097;28;20205;-45
2023/07/16 08:52:58;;;;;;;1.70;1.60;;;33.00;43.50;;;;;;5216049;28;20243;-45
2023/07/16 08:55:29;;;;;;;1.53;1.20;;;32.80;44.00;;;;;;5213300;28;20645;-46
2023/07/16 08:58:00;;;;;;;1.50;1.40;;;32.20;43.20;;;;;;5222002;28;20190;-46
2023/07/16 09:00:32;;;;;;;2.90;1.63;;;31.20;44.80;;;;;;5210716;28;20191;-44
2023/07/16 09:03:04;;;;;;;2.10;1.90;;;30.30;46.60;;;;;;5206379;28;20502;-44
2023/07/16 09:05:36;;;;;;;1.93;1.43;;;29.80;47.80;;;;;;5220467;28;20523;-44
2023/07/16 09:08:07;;;;;;;1.60;1.50;;;29.40;48.90;;;;;;5221351;28;20441;-44
2023/07/16 09:10:39;;;;;;;2.00;1.80;;;29.00;49.10;;;;;;5226734;28;20483;-47
2023/07/16 09:13:10;;;;;;;1.63;1.43;;;28.40;50.30;;;;;;5218335;28;20956;-45
2023/07/16 09:15:44;;;;;;;1.90;1.80;;;28.40;50.80;;;;;;5223086;28;20483;-46
2023/07/16 09:18:22;;;;;;;1.57;1.47;;;28.40;50.20;;;;;;5198281;28;20449;-45
2023/07/16 09:21:02;;;;;;;1.53;1.53;;;28.50;50.10;;;;;;5203211;28;20425;-46
2023/07/16 09:23:33;;;;;;;1.70;1.60;;;28.60;50.00;;;;;;5222859;28;20494;-44
2023/07/16 09:26:04;;;;;;;1.10;1.10;;;28.70;49.90;;;;;;5222600;28;20461;-47
2023/07/16 09:28:34;;;;;;;2.30;1.70;;;29.00;49.40;;;;;;5209148;28;20186;-46
2023/07/16 09:31:08;;;;;;;1.47;1.23;;;29.10;49.00;;;;;;5219525;28;20265;-45
2023/07/16 09:33:39;;;;;;;2.43;1.60;;;29.00;49.00;;;;;;5222076;28;20178;-46
2023/07/16 09:36:10;;;;;;;2.03;1.40;;;28.90;47.70;;;;;;5204219;28;20453;-46
2023/07/16 09:38:41;;;;;;;7.40;4.63;;;28.50;47.20;;;;;;5208477;28;20179;-44
2023/07/16 09:41:12;;;;;;;1.93;1.80;;;28.40;46.80;;;;;;5208399;28;20445;-45
2023/07/16 09:43:44;;;;;;;2.30;2.20;;;28.30;47.00;;;;;;5215953;28;20441;-44
2023/07/16 09:46:14;;;;;;;2.40;2.30;;;28.10;47.70;;;;;;5220234;28;20210;-43
2023/07/16 09:48:45;;;;;;;2.70;1.50;;;28.10;48.20;;;;;;5203554;28;20448;-44
2023/07/16 09:51:16;;;;;;;2.83;2.60;;;28.10;48.70;;;;;;5227011;28;20222;-44
2023/07/16 09:53:50;;;;;;;2.50;1.70;;;28.20;48.20;;;;;;5218757;28;20197;-44
2023/07/16 09:56:20;;;;;;;2.60;2.50;;;28.30;48.60;;;;;;5224304;28;20558;-45
2023/07/16 09:58:52;;;;;;;4.57;1.57;;;28.30;48.60;;;;;;5225623;28;20864;-45
2023/07/16 10:01:22;;;;;;;1.23;1.20;;;28.20;48.10;;;;;;5197864;28;20187;-43
2023/07/16 10:03:53;;;;;;;2.20;1.87;;;28.10;48.70;;;;;;5220842;28;20463;-43
2023/07/16 10:06:23;;;;;;;1.40;1.40;;;28.10;49.30;;;;;;5206093;28;20201;-42
2023/07/16 10:08:54;;;;;;;3.43;1.80;;;28.30;49.50;;;;;;5226342;28;20254;-43
2023/07/16 10:11:25;;;;;;;7.80;2.40;;;28.60;48.30;;;;;;5187342;28;20599;-43
2023/07/16 10:13:55;;;;;;;2.83;1.90;;;28.60;48.00;;;;;;5206854;28;20191;-44
2023/07/16 10:16:27;;;;;;;7.00;2.50;;;28.70;47.10;;;;;;5221097;28;20659;-43
2023/07/16 10:19:00;;;;;;;4.50;2.60;;;28.90;46.80;;;;;;5203014;28;20195;-42
2023/07/16 10:21:38;;;;;;;2.83;1.30;;;29.00;47.40;;;;;;5218979;28;20425;-43
2023/07/16 10:24:18;;;;;;;2.00;1.90;;;29.20;47.10;;;;;;5204848;28;20433;-43
2023/07/16 10:26:48;;;;;;;3.60;2.67;;;29.30;47.90;;;;;;5201946;28;20544;-45
2023/07/16 10:29:19;;;;;;;2.83;1.97;;;29.20;47.00;;;;;;5177502;28;20496;-43
2023/07/16 10:31:50;;;;;;;1.97;1.87;;;29.20;47.30;;;;;;5204474;28;20675;-43
2023/07/16 10:34:23;;;;;;;1.30;1.30;;;29.20;47.30;;;;;;5216396;28;20648;-43
2023/07/16 10:36:53;;;;;;;1.87;1.77;;;29.10;47.50;;;;;;5218282;28;20178;-44
2023/07/16 10:39:24;;;;;;;1.67;1.63;;;28.70;47.80;;;;;;5214996;28;20467;-44
2023/07/16 10:41:56;;;;;;;2.13;2.03;;;28.40;48.70;;;;;;5218589;28;20542;-44
2023/07/16 10:44:27;;;;;;;5.43;2.90;;;28.30;49.00;;;;;;5224945;28;20626;-43
2023/07/16 10:46:58;;;;;;;13.50;5.57;;;28.30;48.70;;;;;;5223994;28;20488;-43
2023/07/16 10:49:29;;;;;;;10.47;5.60;;;28.20;48.50;;;;;;5223180;28;20487;-43
2023/07/16 10:52:01;;;;;;;4.00;2.37;;;28.30;48.60;;;;;;5222194;28;20493;-43
2023/07/16 10:54:31;;;;;;;1.47;1.47;;;28.40;49.10;;;;;;5223607;28;20180;-42
2023/07/16 10:57:04;;;;;;;1.50;1.40;;;28.50;49.20;;;;;;5185624;22;21145;-47
2023/07/16 10:59:38;;;;;;;3.80;1.53;;;28.50;48.90;;;;;;5179810;28;20180;-48
2023/07/16 11:02:11;;;;;;;3.23;1.70;;;28.50;48.80;;;;;;5181711;28;20874;-48
2023/07/16 11:04:46;;;;;;;2.10;1.40;;;28.60;48.30;;;;;;5180333;28;20448;-48
2023/07/16 11:07:17;;;;;;;3.57;2.27;;;28.90;48.00;;;;;;5150312;28;20857;-47
2023/07/16 11:09:53;;;;;;;2.07;1.97;;;28.90;48.00;;;;;;5161039;28;20444;-47
2023/07/16 11:12:24;;;;;;;2.67;1.67;;;29.10;48.30;;;;;;5150159;28;20469;-47
2023/07/16 11:14:56;;;;;;;1.37;1.37;;;29.30;47.80;;;;;;5163733;28;20550;-48
2023/07/16 11:17:27;;;;;;;2.73;2.13;;;29.30;47.20;;;;;;5164041;28;20439;-47
2023/07/16 11:20:00;;;;;;;4.20;1.67;;;29.50;47.10;;;;;;5164503;28;20758;-48
2023/07/16 11:22:30;;;;;;;1.60;1.50;;;29.30;47.30;;;;;;5164298;28;20195;-47
2023/07/16 11:25:02;;;;;;;1.50;1.40;;;29.30;47.80;;;;;;5161671;28;20431;-46
2023/07/16 11:27:32;;;;;;;2.60;2.00;;;29.50;47.60;;;;;;5145714;28;20200;-47
2023/07/16 11:30:03;;;;;;;2.80;1.90;;;29.40;48.30;;;;;;5141493;28;20527;-47
2023/07/16 11:32:35;;;;;;;2.07;2.00;;;29.40;47.10;;;;;;5169988;28;20228;-47
2023/07/16 11:35:07;;;;;;;3.90;1.80;;;29.50;47.50;;;;;;5146586;28;20681;-47
2023/07/16 11:37:38;;;;;;;1.90;1.80;;;29.50;47.40;;;;;;5161465;28;20927;-47
2023/07/16 11:40:10;;;;;;;1.77;1.77;;;29.30;47.80;;;;;;5148211;28;20450;-46
2023/07/16 11:42:44;;;;;;;1.70;1.67;;;29.30;47.50;;;;;;5158547;28;20211;-47
2023/07/16 11:45:20;;;;;;;2.97;1.83;;;29.40;48.70;;;;;;5156186;28;21033;-48
2023/07/16 11:47:51;;;;;;;4.37;2.07;;;29.50;48.20;;;;;;5161272;28;20479;-47
2023/07/16 11:50:22;;;;;;;2.77;2.17;;;29.60;47.90;;;;;;5158286;28;20472;-46
2023/07/16 11:52:54;;;;;;;3.57;2.13;;;29.70;47.90;;;;;;5159212;28;20266;-47
2023/07/16 11:55:25;;;;;;;2.17;2.07;;;29.70;47.60;;;;;;5160019;28;20212;-49
2023/07/16 11:57:59;;;;;;;2.40;2.20;;;29.60;47.30;;;;;;5146200;28;20759;-47
2023/07/16 12:00:30;;;;;;;3.53;1.60;;;29.60;46.20;;;;;;5146208;28;20181;-47
2023/07/16 12:03:00;;;;;;;2.70;1.60;;;29.60;44.20;;;;;;5165081;28;20968;-47
2023/07/16 12:05:31;;;;;;;2.80;1.70;;;29.30;43.60;;;;;;5136523;28;20212;-47
2023/07/16 12:08:02;;;;;;;2.93;2.70;;;29.00;44.40;;;;;;5164686;28;20584;-47
2023/07/16 12:10:32;;;;;;;5.07;2.93;;;28.90;44.90;;;;;;5146187;28;20217;-47
2023/07/16 12:13:03;;;;;;;5.70;2.03;;;28.90;44.90;;;;;;5161414;28;20646;-49
2023/07/16 12:15:33;;;;;;;1.93;1.83;;;29.00;44.20;;;;;;5159311;28;20208;-47
2023/07/16 12:18:04;;;;;;;2.10;1.83;;;28.90;41.00;;;;;;5148729;28;20202;-48
2023/07/16 12:20:36;;;;;;;1.93;1.83;;;29.00;41.40;;;;;;5151795;28;20191;-51
2023/07/16 12:23:06;;;;;;;3.90;2.43;;;29.20;41.60;;;;;;5156214;28;20279;-46
2023/07/16 12:25:37;;;;;;;2.90;2.10;;;29.10;41.30;;;;;;5158301;28;20466;-49
2023/07/16 12:28:08;;;;;;;7.93;1.70;;;29.20;39.50;;;;;;5154598;28;20176;-47
2023/07/16 12:30:38;;;;;;;3.60;2.83;;;29.30;38.60;;;;;;5154210;28;20220;-46
2023/07/16 12:33:09;;;;;;;2.47;1.77;;;29.50;38.50;;;;;;5158507;28;20205;-46
2023/07/16 12:35:40;;;;;;;2.70;1.80;;;29.70;37.80;;;;;;5160822;28;20212;-48
2023/07/16 12:38:10;;;;;;;2.93;1.73;;;29.50;37.70;;;;;;5172482;28;20185;-45
2023/07/16 12:40:41;;;;;;;1.50;1.40;;;29.20;38.10;;;;;;5149996;28;20284;-46
2023/07/16 12:43:11;;;;;;;2.90;1.80;;;29.10;38.30;;;;;;5146739;28;20580;-46
2023/07/16 12:45:42;;;;;;;2.90;2.00;;;29.30;38.20;;;;;;5165464;28;20208;-46
2023/07/16 12:48:13;;;;;;;2.10;2.00;;;29.50;37.70;;;;;;5148087;28;20196;-47
2023/07/16 12:50:43;;;;;;;6.13;1.33;;;29.50;36.30;;;;;;5150542;28;20283;-46
2023/07/16 12:53:14;;;;;;;1.00;1.00;;;29.30;36.30;;;;;;5170156;28;20760;-48
2023/07/16 12:55:44;;;;;;;2.53;2.37;;;29.10;36.00;;;;;;5165823;28;20211;-47
2023/07/16 12:58:15;;;;;;;1.90;1.77;;;29.00;36.40;;;;;;5152740;28;20641;-47
2023/07/16 13:00:46;;;;;;;3.53;1.90;;;29.00;36.60;;;;;;5164896;28;20180;-47
2023/07/16 13:03:16;;;;;;;6.17;2.50;;;29.10;36.60;;;;;;5146649;28;20277;-46
2023/07/16 13:05:47;;;;;;;3.73;1.47;;;29.20;36.30;;;;;;5157164;28;20293;-47